createdAt,value
2023-08-11T00:00:22.630Z,8.40
2023-08-11T00:02:53.183Z,10.07
2023-08-11T00:05:20.259Z,8.73
2023-08-11T00:07:51.375Z,10.20
2023-08-11T00:10:19.157Z,8.63
2023-08-11T00:15:16.239Z,6.43
2023-08-11T00:17:42.962Z,7.80
2023-08-11T00:20:10.018Z,7.70
2023-08-11T00:22:38.970Z,8.40
2023-08-11T00:25:06.847Z,8.15
2023-08-11T00:27:33.381Z,7.65
2023-08-11T00:29:59.889Z,10.13
2023-08-11T00:32:26.503Z,7.85
2023-08-11T00:34:53.207Z,7.57
2023-08-11T00:37:20.368Z,6.93
2023-08-11T00:39:47.162Z,7.53
2023-08-11T00:42:14.052Z,8.25
2023-08-11T00:44:41.103Z,9.57
2023-08-11T00:47:08.034Z,8.70
2023-08-11T00:49:35.482Z,7.47
2023-08-11T00:52:02.596Z,8.77
2023-08-11T00:54:29.805Z,9.38
2023-08-11T00:56:57.067Z,9.05
2023-08-11T00:59:24.296Z,7.80
2023-08-11T01:01:50.853Z,8.70
2023-08-11T01:04:18.189Z,7.78
2023-08-11T01:06:49.098Z,10.75
2023-08-11T01:09:31.971Z,7.95
2023-08-11T01:12:32.240Z,8.18
2023-08-11T01:15:35.232Z,8.20
2023-08-11T01:18:04.310Z,8.63
2023-08-11T01:20:33.372Z,7.10
2023-08-11T01:23:01.603Z,8.82
2023-08-11T01:25:29.063Z,7.40
2023-08-11T01:27:57.932Z,9.93
2023-08-11T01:30:29.633Z,10.32
2023-08-11T01:32:57.542Z,7.57
2023-08-11T01:35:38.284Z,9.20
2023-08-11T01:38:07.601Z,8.23
2023-08-11T01:40:34.379Z,9.80
2023-08-11T01:43:03.676Z,8.07
2023-08-11T01:45:30.876Z,8.52
2023-08-11T01:47:57.742Z,11.68
2023-08-11T01:50:25.709Z,9.98
2023-08-11T01:52:53.201Z,9.80
2023-08-11T01:55:19.810Z,9.77
2023-08-11T01:57:57.495Z,7.50
2023-08-11T02:00:26.227Z,7.93
2023-08-11T02:02:53.812Z,8.65
2023-08-11T02:05:20.597Z,8.60
2023-08-11T02:07:47.251Z,9.38
2023-08-11T02:10:14.061Z,10.60
2023-08-11T02:12:41.806Z,9.35
2023-08-11T02:15:09.072Z,12.63
2023-08-11T02:17:36.190Z,9.00
2023-08-11T02:20:18.155Z,8.43
2023-08-11T02:22:45.136Z,9.00
2023-08-11T02:25:11.827Z,11.18
2023-08-11T02:27:38.411Z,7.88
2023-08-11T02:30:06.454Z,11.20
2023-08-11T02:32:33.394Z,9.23
2023-08-11T02:35:00.124Z,9.45
2023-08-11T02:37:26.774Z,10.77
2023-08-11T02:39:53.279Z,11.23
2023-08-11T02:42:20.078Z,11.70
2023-08-11T02:44:46.662Z,9.95
2023-08-11T02:47:13.387Z,9.85
2023-08-11T02:49:40.000Z,10.05
2023-08-11T02:52:06.814Z,9.65
2023-08-11T02:54:33.865Z,9.80
2023-08-11T02:57:00.473Z,8.30
2023-08-11T02:59:27.148Z,9.68
2023-08-11T03:01:53.629Z,9.60
2023-08-11T03:04:20.143Z,12.30
2023-08-11T03:06:47.741Z,12.68
2023-08-11T03:09:14.549Z,8.77
2023-08-11T03:11:42.510Z,10.65
2023-08-11T03:14:09.008Z,9.32
2023-08-11T03:16:35.620Z,10.48
2023-08-11T03:19:02.216Z,9.50
2023-08-11T03:21:28.711Z,10.00
2023-08-11T03:23:55.711Z,11.75
2023-08-11T03:26:22.227Z,11.98
2023-08-11T03:28:48.943Z,8.98
2023-08-11T03:31:15.633Z,10.80
2023-08-11T03:33:42.307Z,9.13
2023-08-11T03:36:09.175Z,10.57
2023-08-11T03:38:35.693Z,10.18
2023-08-11T03:41:02.374Z,10.65
2023-08-11T03:43:29.069Z,9.45
2023-08-11T03:45:55.629Z,11.05
2023-08-11T03:48:22.117Z,12.45
2023-08-11T03:50:48.693Z,10.15
2023-08-11T03:53:15.436Z,11.48
2023-08-11T03:55:46.971Z,9.35
2023-08-11T03:58:16.257Z,12.57
2023-08-11T04:00:43.292Z,13.10
2023-08-11T04:03:10.599Z,16.73
2023-08-11T04:05:37.859Z,11.70
2023-08-11T04:08:07.603Z,10.52
2023-08-11T04:10:38.629Z,10.15
2023-08-11T04:13:06.189Z,11.98
2023-08-11T04:15:32.700Z,13.43
2023-08-11T04:17:59.367Z,13.70
2023-08-11T04:20:26.103Z,12.60
2023-08-11T04:22:52.594Z,12.98
2023-08-11T04:25:19.828Z,12.48
2023-08-11T04:27:46.334Z,11.20
2023-08-11T04:30:13.666Z,11.35
2023-08-11T04:32:40.685Z,11.63
2023-08-11T04:35:08.962Z,14.32
2023-08-11T04:37:36.205Z,12.75
2023-08-11T04:40:07.882Z,14.00
2023-08-11T04:42:35.366Z,11.75
2023-08-11T04:45:02.436Z,10.07
2023-08-11T04:47:29.177Z,16.60
2023-08-11T04:49:56.311Z,9.00
2023-08-11T04:52:23.277Z,13.18
2023-08-11T04:54:50.088Z,11.13
2023-08-11T04:57:16.672Z,12.43
2023-08-11T04:59:43.163Z,11.73
2023-08-11T05:02:09.949Z,12.05
2023-08-11T05:04:36.735Z,11.85
2023-08-11T05:07:03.537Z,11.52
2023-08-11T05:09:30.008Z,14.73
2023-08-11T05:11:56.580Z,12.20
2023-08-11T05:14:24.348Z,12.77
2023-08-11T05:16:51.071Z,12.65
2023-08-11T05:19:17.658Z,12.88
2023-08-11T05:21:44.380Z,13.95
2023-08-11T05:24:11.698Z,16.23
2023-08-11T05:26:38.806Z,13.77
2023-08-11T05:29:05.814Z,14.57
2023-08-11T05:31:32.789Z,12.38
2023-08-11T05:33:59.445Z,10.55
2023-08-11T05:36:26.005Z,14.57
2023-08-11T05:38:52.681Z,18.17
2023-08-11T05:41:19.459Z,17.30
2023-08-11T05:43:46.007Z,14.00
2023-08-11T05:46:12.828Z,12.13
2023-08-11T05:48:39.346Z,18.30
2023-08-11T05:51:05.962Z,14.00
2023-08-11T05:53:32.956Z,14.73
2023-08-11T05:55:59.770Z,13.20
2023-08-11T05:58:27.830Z,14.20
2023-08-11T06:00:54.409Z,12.60
2023-08-11T06:03:20.899Z,15.68
2023-08-11T06:05:47.752Z,14.73
2023-08-11T06:08:14.342Z,12.10
2023-08-11T06:10:41.269Z,15.45
2023-08-11T06:13:08.265Z,12.43
2023-08-11T06:15:34.781Z,13.38
2023-08-11T06:18:01.308Z,12.50
2023-08-11T06:20:40.293Z,14.95
2023-08-11T06:23:08.929Z,15.18
2023-08-11T06:25:35.700Z,16.75
2023-08-11T06:28:02.863Z,13.32
2023-08-11T06:30:30.082Z,16.65
2023-08-11T06:32:57.408Z,15.57
2023-08-11T06:35:24.198Z,13.68
2023-08-11T06:37:50.730Z,12.15
2023-08-11T06:40:17.330Z,18.55
2023-08-11T06:42:44.290Z,15.02
2023-08-11T06:45:11.408Z,14.75
2023-08-11T06:47:38.468Z,17.02
2023-08-11T06:50:05.542Z,12.85
2023-08-11T06:52:32.035Z,16.25
2023-08-11T06:54:59.194Z,14.80
2023-08-11T06:57:25.767Z,13.20
2023-08-11T06:59:52.439Z,15.57
2023-08-11T07:02:19.107Z,10.93
2023-08-11T07:04:46.210Z,11.43
2023-08-11T07:07:12.924Z,17.50
2023-08-11T07:09:39.454Z,11.80
2023-08-11T07:12:06.855Z,10.88
2023-08-11T07:14:33.426Z,14.88
2023-08-11T07:17:00.314Z,15.60
2023-08-11T07:19:27.136Z,13.00
2023-08-11T07:21:53.619Z,16.90
2023-08-11T07:24:20.156Z,13.35
2023-08-11T07:26:46.596Z,13.40
2023-08-11T07:29:13.215Z,11.48
2023-08-11T07:31:40.754Z,12.02
2023-08-11T07:34:07.546Z,11.68
2023-08-11T07:36:34.205Z,11.02
2023-08-11T07:39:20.663Z,13.70
2023-08-11T07:44:15.954Z,11.75
2023-08-11T07:46:42.766Z,11.65
2023-08-11T07:49:09.342Z,11.13
2023-08-11T07:51:35.926Z,7.53
2023-08-11T07:54:02.594Z,9.88
2023-08-11T07:56:29.351Z,10.18
2023-08-11T07:58:55.867Z,10.77
2023-08-11T08:01:26.159Z,10.32
2023-08-11T08:03:52.796Z,11.00
2023-08-11T08:06:19.690Z,10.93
2023-08-11T08:08:46.279Z,9.80
2023-08-11T08:11:12.813Z,11.10
2023-08-11T08:13:39.359Z,10.45
2023-08-11T08:16:06.009Z,11.57
2023-08-11T08:18:32.730Z,11.02
2023-08-11T08:20:59.228Z,9.85
2023-08-11T08:23:25.918Z,8.63
2023-08-11T08:25:52.386Z,8.65
2023-08-11T08:28:18.872Z,10.60
2023-08-11T08:30:45.707Z,7.93
2023-08-11T08:33:12.240Z,8.85
2023-08-11T08:35:38.925Z,18.67
2023-08-11T08:38:06.249Z,10.20
2023-08-11T08:40:35.835Z,12.10
2023-08-11T08:43:04.889Z,11.52
2023-08-11T08:45:33.102Z,11.90
2023-08-11T08:48:01.071Z,8.70
2023-08-11T08:50:28.130Z,9.88
2023-08-11T08:52:54.931Z,9.82
2023-08-11T08:55:22.474Z,9.00
2023-08-11T08:57:49.172Z,12.18
2023-08-11T09:00:15.935Z,8.48
2023-08-11T09:02:43.426Z,10.13
2023-08-11T09:07:36.871Z,9.43
2023-08-11T09:10:03.838Z,10.45
2023-08-11T09:12:30.489Z,7.93
2023-08-11T09:14:57.418Z,11.20
2023-08-11T09:17:25.691Z,8.13
2023-08-11T09:19:53.407Z,7.70
2023-08-11T09:22:26.528Z,7.70
2023-08-11T09:24:55.290Z,8.20
2023-08-11T09:27:22.989Z,8.90
2023-08-11T09:32:17.898Z,7.85
2023-08-11T09:34:45.061Z,7.85
2023-08-11T09:37:12.421Z,6.95
2023-08-11T09:39:39.283Z,5.50
2023-08-11T09:42:06.143Z,5.68
2023-08-11T09:44:32.661Z,12.68
2023-08-11T09:47:11.914Z,6.47
2023-08-11T09:49:42.928Z,7.57
2023-08-11T09:52:11.401Z,6.38
2023-08-11T09:54:39.109Z,9.50
2023-08-11T09:57:07.689Z,8.05
2023-08-11T09:59:35.613Z,5.70
2023-08-11T10:02:03.874Z,4.57
2023-08-11T10:04:33.277Z,6.95
2023-08-11T10:07:02.507Z,7.55
2023-08-11T10:09:33.107Z,4.45
2023-08-11T10:12:00.714Z,6.43
2023-08-11T10:14:29.253Z,6.30
2023-08-11T10:16:56.386Z,5.32
2023-08-11T10:19:23.404Z,7.20
2023-08-11T10:21:50.122Z,3.95
2023-08-11T10:24:17.059Z,4.85
2023-08-11T10:26:44.314Z,4.93
2023-08-11T10:29:13.134Z,4.32
2023-08-11T10:31:57.312Z,5.35
2023-08-11T10:34:25.065Z,7.13
2023-08-11T10:36:54.721Z,6.15
2023-08-11T10:39:21.851Z,7.93
2023-08-11T10:41:50.954Z,4.15
2023-08-11T10:44:27.465Z,5.05
2023-08-11T10:46:54.095Z,5.43
2023-08-11T10:49:33.288Z,4.05
2023-08-11T10:52:01.777Z,8.40
2023-08-11T10:54:28.509Z,8.48
2023-08-11T10:56:55.346Z,3.05
2023-08-11T10:59:32.587Z,4.03
2023-08-11T11:02:03.036Z,4.72
2023-08-11T11:04:32.026Z,3.78
2023-08-11T11:07:00.471Z,3.85
2023-08-11T11:09:31.255Z,5.07
2023-08-11T11:11:57.909Z,3.80
2023-08-11T11:14:27.653Z,6.18
2023-08-11T11:16:59.883Z,6.15
2023-08-11T11:19:27.501Z,3.38
2023-08-11T11:21:54.166Z,3.75
2023-08-11T11:24:21.011Z,4.60
2023-08-11T11:26:47.790Z,4.47
2023-08-11T11:29:14.360Z,4.68
2023-08-11T11:31:41.480Z,4.13
2023-08-11T11:34:08.645Z,4.47
2023-08-11T11:36:35.529Z,3.00
2023-08-11T11:39:05.304Z,4.18
2023-08-11T11:41:32.502Z,4.13
2023-08-11T11:44:00.307Z,4.30
2023-08-11T11:46:27.747Z,4.35
2023-08-11T11:48:55.584Z,4.45
2023-08-11T11:51:26.859Z,2.30
2023-08-11T11:53:55.778Z,4.35
2023-08-11T11:56:23.072Z,4.43
2023-08-11T12:01:28.413Z,5.07
2023-08-11T12:03:59.451Z,3.42
2023-08-11T12:06:28.703Z,2.40
2023-08-11T12:09:01.879Z,4.82
2023-08-11T12:11:28.885Z,5.10
2023-08-11T12:13:55.512Z,3.88
2023-08-11T12:16:22.521Z,3.45
2023-08-11T12:18:49.209Z,4.22
2023-08-11T12:21:17.943Z,5.43
2023-08-11T12:23:44.560Z,3.05
2023-08-11T12:26:11.324Z,3.53
2023-08-11T12:28:37.999Z,4.70
2023-08-11T12:31:04.563Z,4.72
2023-08-11T12:33:31.232Z,4.53
2023-08-11T12:35:57.802Z,6.65
2023-08-11T12:38:25.453Z,5.85
2023-08-11T12:40:52.089Z,3.20
2023-08-11T12:43:19.228Z,3.53
2023-08-11T12:45:46.300Z,4.60
2023-08-11T12:48:14.269Z,5.45
2023-08-11T12:50:41.714Z,4.82
2023-08-11T12:53:08.802Z,3.72
2023-08-11T12:55:38.520Z,3.40
2023-08-11T12:58:05.772Z,5.03
2023-08-11T13:00:34.246Z,5.78
2023-08-11T13:03:00.978Z,3.75
2023-08-11T13:05:28.124Z,3.47
2023-08-11T13:07:54.889Z,3.45
2023-08-11T13:10:22.486Z,5.93
2023-08-11T13:12:50.230Z,3.53
2023-08-11T13:15:16.914Z,3.22
2023-08-11T13:17:45.668Z,2.90
2023-08-11T13:20:13.450Z,5.82
2023-08-11T13:22:40.945Z,4.00
2023-08-11T13:27:34.941Z,4.60
2023-08-11T13:30:01.471Z,4.75
2023-08-11T13:32:28.239Z,4.90
2023-08-11T13:34:54.751Z,6.70
2023-08-11T13:37:21.257Z,6.78
2023-08-11T13:39:47.707Z,4.63
2023-08-11T13:42:14.284Z,4.50
2023-08-11T13:44:40.888Z,7.05
2023-08-11T13:47:07.702Z,9.43
2023-08-11T13:54:28.999Z,6.45
2023-08-11T13:56:55.660Z,6.03
2023-08-11T13:59:22.362Z,7.57
2023-08-11T14:01:48.994Z,7.32
2023-08-11T14:04:15.606Z,6.28
2023-08-11T14:06:42.093Z,5.00
2023-08-11T14:09:08.804Z,4.07
2023-08-11T14:11:35.418Z,4.88
2023-08-11T14:14:01.905Z,4.80
2023-08-11T14:16:28.438Z,6.95
2023-08-11T14:18:56.651Z,4.78
2023-08-11T14:21:24.021Z,6.53
2023-08-11T14:23:51.641Z,3.97
2023-08-11T14:26:18.457Z,4.47
2023-08-11T14:28:45.453Z,4.90
2023-08-11T14:31:12.316Z,6.50
2023-08-11T14:33:42.045Z,7.18
2023-08-11T14:36:12.943Z,4.75
2023-08-11T14:38:40.438Z,5.60
2023-08-11T14:41:07.872Z,6.93
2023-08-11T14:43:35.043Z,7.68
2023-08-11T14:46:01.870Z,4.82
2023-08-11T14:48:28.553Z,7.00
2023-08-11T14:50:55.548Z,4.93
2023-08-11T14:53:24.223Z,5.22
2023-08-11T14:55:50.862Z,5.40
2023-08-11T14:58:18.548Z,6.30
2023-08-11T15:00:45.154Z,4.68
2023-08-11T15:03:12.063Z,4.55
2023-08-11T15:05:38.860Z,8.55
2023-08-11T15:08:06.403Z,7.10
2023-08-11T15:10:33.273Z,6.75
2023-08-11T15:13:01.206Z,5.82
2023-08-11T15:15:27.950Z,7.13
2023-08-11T15:17:54.632Z,6.85
2023-08-11T15:20:22.584Z,8.65
2023-08-11T15:22:50.958Z,6.60
2023-08-11T15:25:18.005Z,7.25
2023-08-11T15:27:45.158Z,5.80
2023-08-11T15:30:12.481Z,7.40
2023-08-11T15:35:07.576Z,7.75
2023-08-11T15:40:00.623Z,9.13
2023-08-11T15:42:28.115Z,5.45
2023-08-11T15:44:54.657Z,7.10
2023-08-11T15:47:21.217Z,7.57
2023-08-11T15:49:47.732Z,9.75
2023-08-11T15:52:14.400Z,8.00
2023-08-11T15:54:40.973Z,7.90
2023-08-11T15:57:07.822Z,11.13
2023-08-11T15:59:34.447Z,9.90
2023-08-11T16:02:10.176Z,5.60
2023-08-11T16:04:37.874Z,10.02
2023-08-11T16:07:04.573Z,5.90
2023-08-11T16:09:31.110Z,4.82
2023-08-11T16:11:57.733Z,5.32
2023-08-11T16:14:28.174Z,8.10
2023-08-11T16:16:55.353Z,9.75
2023-08-11T16:19:21.934Z,17.08
2023-08-11T16:21:48.775Z,10.82
2023-08-11T16:24:15.503Z,3.95
2023-08-11T16:26:42.168Z,8.48
2023-08-11T16:29:08.685Z,9.15
2023-08-11T16:31:35.237Z,4.75
2023-08-11T16:34:01.724Z,5.38
2023-08-11T16:36:28.911Z,4.07
2023-08-11T16:38:55.471Z,4.90
2023-08-11T16:41:22.235Z,4.63
2023-08-11T16:43:51.146Z,8.52
2023-08-11T16:46:19.755Z,7.82
2023-08-11T16:48:46.299Z,5.28
2023-08-11T16:51:15.197Z,4.85
2023-08-11T16:53:42.616Z,4.10
2023-08-11T16:58:37.085Z,3.88
2023-08-11T17:01:03.741Z,4.53
2023-08-11T17:03:30.592Z,6.95
2023-08-11T17:05:57.427Z,3.15
2023-08-11T17:08:24.249Z,4.13
2023-08-11T17:10:50.944Z,3.53
2023-08-11T17:13:17.471Z,6.20
2023-08-11T17:15:44.259Z,4.65
2023-08-11T17:18:10.919Z,6.93
2023-08-11T17:20:38.436Z,6.63
2023-08-11T17:23:05.249Z,5.70
2023-08-11T17:25:31.765Z,5.93
2023-08-11T17:27:58.220Z,11.70
2023-08-11T17:30:24.805Z,8.60
2023-08-11T17:32:51.461Z,4.28
2023-08-11T17:35:18.088Z,5.60
2023-08-11T17:37:44.551Z,9.35
2023-08-11T17:40:11.298Z,7.30
2023-08-11T17:42:37.867Z,4.65
2023-08-11T17:45:04.826Z,7.93
2023-08-11T17:47:31.348Z,6.15
2023-08-11T17:49:57.866Z,6.25
2023-08-11T17:52:24.424Z,3.42
2023-08-11T17:54:51.027Z,6.43
2023-08-11T17:57:17.545Z,4.00
2023-08-11T17:59:44.064Z,4.68
2023-08-11T18:02:11.056Z,6.88
2023-08-11T18:04:37.750Z,3.50
2023-08-11T18:07:04.679Z,3.10
2023-08-11T18:09:31.324Z,3.75
2023-08-11T18:11:57.795Z,4.70
2023-08-11T18:14:24.461Z,4.70
2023-08-11T18:16:50.945Z,3.45
2023-08-11T18:19:17.480Z,3.50
2023-08-11T18:21:44.073Z,3.20
2023-08-11T18:24:11.289Z,4.57
2023-08-11T18:26:38.051Z,5.00
2023-08-11T18:29:05.106Z,4.15
2023-08-11T18:31:31.758Z,5.18
2023-08-11T18:34:01.505Z,3.53
2023-08-11T18:36:28.301Z,5.78
2023-08-11T18:38:54.926Z,3.83
2023-08-11T18:41:21.506Z,7.18
2023-08-11T18:43:47.970Z,3.13
2023-08-11T18:46:14.584Z,4.53
2023-08-11T18:48:41.102Z,11.32
2023-08-11T18:51:07.651Z,3.42
2023-08-11T18:53:34.126Z,5.03
2023-08-11T18:56:00.895Z,3.75
2023-08-11T18:58:27.358Z,2.85
2023-08-11T19:00:53.977Z,2.33
2023-08-11T19:03:20.679Z,5.40
2023-08-11T19:05:47.286Z,6.18
2023-08-11T19:08:13.810Z,3.28
2023-08-11T19:10:40.285Z,5.72
2023-08-11T19:13:06.932Z,3.55
2023-08-11T19:15:34.724Z,3.80
2023-08-11T19:18:01.366Z,4.00
2023-08-11T19:20:27.851Z,4.03
2023-08-11T19:22:54.518Z,2.38
2023-08-11T19:25:20.898Z,3.47
2023-08-11T19:27:47.458Z,3.50
2023-08-11T19:30:14.256Z,2.60
2023-08-11T19:32:41.075Z,4.25
2023-08-11T19:35:08.061Z,4.50
2023-08-11T19:37:34.749Z,1.73
2023-08-11T19:40:01.407Z,3.90
2023-08-11T19:42:27.940Z,1.73
2023-08-11T19:44:54.648Z,4.35
2023-08-11T19:47:22.758Z,2.38
2023-08-11T19:49:49.624Z,1.70
2023-08-11T19:52:20.231Z,3.22
2023-08-11T19:54:47.735Z,2.53
2023-08-11T19:57:14.535Z,4.00
2023-08-11T19:59:44.855Z,2.92
2023-08-11T20:02:11.766Z,1.90
2023-08-11T20:04:38.525Z,3.33
2023-08-11T20:07:05.774Z,2.28
2023-08-11T20:09:36.077Z,2.58
2023-08-11T20:12:03.841Z,3.35
2023-08-11T20:14:30.292Z,4.05
2023-08-11T20:16:56.793Z,2.05
2023-08-11T20:19:25.290Z,2.28
2023-08-11T20:21:51.956Z,3.45
2023-08-11T20:24:18.548Z,4.35
2023-08-11T20:26:45.153Z,2.88
2023-08-11T20:29:12.973Z,3.60
2023-08-11T20:31:39.471Z,4.10
2023-08-11T20:34:06.069Z,3.58
2023-08-11T20:36:32.601Z,2.08
2023-08-11T20:38:59.142Z,3.47
2023-08-11T20:41:25.698Z,5.13
2023-08-11T20:43:52.258Z,3.22
2023-08-11T20:46:19.489Z,4.88
2023-08-11T20:48:46.276Z,2.28
2023-08-11T20:51:12.956Z,3.63
2023-08-11T20:53:39.574Z,5.68
2023-08-11T20:56:06.306Z,4.68
2023-08-11T20:58:32.849Z,4.78
2023-08-11T21:00:59.756Z,3.45
2023-08-11T21:03:26.850Z,3.63
2023-08-11T21:05:56.565Z,3.97
2023-08-11T21:08:23.501Z,3.97
2023-08-11T21:10:50.702Z,6.32
2023-08-11T21:13:17.326Z,3.17
2023-08-11T21:15:46.607Z,4.82
2023-08-11T21:18:13.365Z,3.63
2023-08-11T21:20:39.918Z,4.50
2023-08-11T21:23:07.304Z,3.35
2023-08-11T21:25:34.744Z,3.00
2023-08-11T21:28:01.321Z,3.38
2023-08-11T21:30:30.354Z,4.07
2023-08-11T21:32:56.887Z,4.32
2023-08-11T21:35:23.444Z,4.63
2023-08-11T21:37:50.226Z,4.22
2023-08-11T21:40:17.233Z,4.28
2023-08-11T21:42:44.521Z,3.28
2023-08-11T21:45:11.628Z,5.82
2023-08-11T21:47:38.333Z,5.55
2023-08-11T21:50:05.267Z,4.50
2023-08-11T21:52:31.804Z,3.45
2023-08-11T21:54:58.260Z,8.05
2023-08-11T21:57:24.925Z,8.82
2023-08-11T21:59:51.693Z,4.50
2023-08-11T22:02:18.161Z,6.00
2023-08-11T22:04:46.453Z,5.28
2023-08-11T22:07:13.832Z,4.40
2023-08-11T22:09:40.910Z,5.03
2023-08-11T22:12:07.749Z,5.57
2023-08-11T22:14:35.019Z,4.10
2023-08-11T22:17:01.753Z,5.25
2023-08-11T22:19:30.718Z,5.78
2023-08-11T22:21:57.966Z,8.27
2023-08-11T22:24:34.974Z,3.72
2023-08-11T22:27:05.892Z,4.10
2023-08-11T22:29:32.418Z,4.30
2023-08-11T22:31:58.889Z,4.05
2023-08-11T22:34:25.548Z,5.25
2023-08-11T22:36:52.365Z,5.03
2023-08-11T22:39:18.932Z,5.47
2023-08-11T22:41:45.545Z,6.28
2023-08-11T22:44:12.061Z,6.43
2023-08-11T22:46:38.566Z,5.30
2023-08-11T22:49:05.261Z,4.65
2023-08-11T22:51:31.934Z,4.88
2023-08-11T22:53:58.449Z,5.65
2023-08-11T22:56:24.911Z,8.23
2023-08-11T22:58:57.452Z,7.95
2023-08-11T23:01:24.362Z,5.20
2023-08-11T23:03:51.020Z,6.03
2023-08-11T23:06:17.780Z,5.85
2023-08-11T23:08:44.284Z,5.07
2023-08-11T23:11:10.863Z,4.85
2023-08-11T23:13:37.278Z,5.80
2023-08-11T23:16:04.149Z,5.78
2023-08-11T23:18:30.757Z,7.18
2023-08-11T23:20:57.229Z,6.53
2023-08-11T23:23:23.740Z,8.20
2023-08-11T23:25:50.487Z,5.68
2023-08-11T23:28:17.282Z,4.72
2023-08-11T23:30:43.931Z,5.95
2023-08-11T23:33:10.647Z,6.45
2023-08-11T23:35:38.818Z,6.25
2023-08-11T23:38:06.258Z,6.45
2023-08-11T23:40:33.199Z,4.00
2023-08-11T23:42:59.781Z,7.57
2023-08-11T23:45:26.525Z,4.80
2023-08-11T23:47:53.542Z,4.78
2023-08-11T23:50:20.095Z,5.53
2023-08-11T23:52:46.679Z,5.63
2023-08-11T23:55:13.606Z,6.85
2023-08-11T23:57:40.265Z,7.40
